KHFF/HFF METAR and TAF weather

Enter ICAO airport designator
Station Type Date Time Source
KHFF METAR 2022/09/28 18:55 UTC NOAA

KHFF 281855Z AUTO 04006KT 10SM CLR 22/03 A3014 RMK AO2 SLP208 T02240030 $


Station Type Date Time Source
KHFF Decoded METAR 2022/09/28 18:55 UTC NOAA

Mackall U. S. Army Airfield, NC, United States (KHFF) 35-02N 079-30W
Sep 28, 2022 - 02:55 PM EDT / 2022.09.28 1855 UTC
Wind: from the NE (040 degrees) at 7 MPH (6 KT):0
Visibility: 10 mile(s):0
Sky conditions: clear
Temperature: 72.3 F (22.4 C)
Dew Point: 37.4 F (3.0 C)
Relative Humidity: 27%
Pressure (altimeter): 30.14 in. Hg (1020 hPa)
ob: KHFF 281855Z AUTO 04006KT 10SM CLR 22/03 A3014 RMK AO2 SLP208 T02240030
cycle: 19

Station Type Date Time Source
KHFF TAF UTC NOAA

Error!

Example: see airport list